createdAt,value
2023-03-06T00:03:16.035Z,63.65
2023-03-06T00:08:17.250Z,63.10
2023-03-06T00:13:21.524Z,63.30
2023-03-06T00:18:22.745Z,62.28
2023-03-06T00:23:24.106Z,62.86
2023-03-06T00:28:25.530Z,62.63
2023-03-06T00:33:26.809Z,62.62
2023-03-06T00:38:31.541Z,62.42
2023-03-06T00:43:32.772Z,62.83
2023-03-06T00:48:34.043Z,63.11
2023-03-06T00:53:35.337Z,63.76
2023-03-06T00:58:37.351Z,64.27
2023-03-06T01:03:38.599Z,64.88
2023-03-06T01:08:39.875Z,65.24
2023-03-06T01:13:41.136Z,65.14
2023-03-06T01:18:42.387Z,65.95
2023-03-06T01:23:43.704Z,66.05
2023-03-06T01:28:44.953Z,65.99
2023-03-06T01:33:46.236Z,66.04
2023-03-06T01:38:47.496Z,65.13
2023-03-06T01:43:48.699Z,64.99
2023-03-06T01:48:50.008Z,64.65
2023-03-06T01:53:51.330Z,64.08
2023-03-06T01:58:52.587Z,64.25
2023-03-06T02:03:53.821Z,64.64
2023-03-06T02:08:55.106Z,65.35
2023-03-06T02:13:56.331Z,64.86
2023-03-06T02:18:57.583Z,64.76
2023-03-06T02:23:58.840Z,65.06
2023-03-06T02:29:00.056Z,66.42
2023-03-06T02:34:01.271Z,66.37
2023-03-06T02:39:02.484Z,66.51
2023-03-06T02:44:03.847Z,66.26
2023-03-06T02:49:05.115Z,65.70
2023-03-06T02:54:06.386Z,64.98
2023-03-06T02:59:07.598Z,64.86
2023-03-06T03:04:08.946Z,64.36
2023-03-06T03:09:10.218Z,64.43
2023-03-06T03:14:11.561Z,65.42
2023-03-06T03:19:12.894Z,66.19
2023-03-06T03:24:14.204Z,66.03
2023-03-06T03:29:15.505Z,66.41
2023-03-06T03:34:16.949Z,66.16
2023-03-06T03:39:18.218Z,66.27
2023-03-06T03:44:19.467Z,66.51
2023-03-06T03:49:20.960Z,66.39
2023-03-06T03:54:22.218Z,66.27
2023-03-06T03:59:23.470Z,66.30
2023-03-06T04:04:24.730Z,66.34
2023-03-06T04:09:26.015Z,66.52
2023-03-06T04:14:27.244Z,66.74
2023-03-06T04:19:28.562Z,68.20
2023-03-06T04:24:29.836Z,68.86
2023-03-06T04:29:31.048Z,69.03
2023-03-06T04:34:32.246Z,68.75
2023-03-06T04:39:33.446Z,69.07
2023-03-06T04:44:34.674Z,69.82
2023-03-06T04:49:36.075Z,69.15
2023-03-06T04:54:37.324Z,69.85
2023-03-06T04:59:39.310Z,69.23
2023-03-06T05:04:40.588Z,69.73
2023-03-06T05:09:41.839Z,70.03
2023-03-06T05:14:43.817Z,70.57
2023-03-06T05:19:45.091Z,71.14
2023-03-06T05:24:46.301Z,71.43
2023-03-06T05:29:47.539Z,70.88
2023-03-06T05:34:48.796Z,71.19
2023-03-06T05:39:50.017Z,71.04
2023-03-06T05:44:51.220Z,71.41
2023-03-06T05:49:54.635Z,72.00
2023-03-06T05:54:55.968Z,71.92
2023-03-06T05:59:57.207Z,71.30
2023-03-06T06:04:58.478Z,71.97
2023-03-06T06:10:00.332Z,73.38
2023-03-06T06:15:02.457Z,73.94
2023-03-06T06:20:03.805Z,74.31
2023-03-06T06:25:05.092Z,74.95
2023-03-06T06:30:06.349Z,74.77
2023-03-06T06:35:07.626Z,74.09
2023-03-06T06:40:08.953Z,74.85
2023-03-06T06:45:10.586Z,75.51
2023-03-06T06:50:12.471Z,74.88
2023-03-06T06:55:13.738Z,74.72
2023-03-06T07:00:15.114Z,72.31
2023-03-06T07:05:16.472Z,70.41
2023-03-06T07:10:19.890Z,68.85
2023-03-06T07:15:21.297Z,67.89
2023-03-06T07:20:22.557Z,67.38
2023-03-06T07:25:27.646Z,66.95
2023-03-06T07:30:28.994Z,66.77
2023-03-06T07:35:30.319Z,66.37
2023-03-06T07:40:31.777Z,66.54
2023-03-06T07:45:33.012Z,66.34
2023-03-06T07:50:35.052Z,65.44
2023-03-06T07:55:43.007Z,65.15
2023-03-06T08:00:44.405Z,65.04
2023-03-06T08:05:46.223Z,65.06
2023-03-06T08:10:47.664Z,64.40
2023-03-06T08:15:49.600Z,65.03
2023-03-06T08:20:50.843Z,64.34
2023-03-06T08:25:52.097Z,64.17
2023-03-06T08:30:53.986Z,64.59
2023-03-06T08:35:55.376Z,67.38
2023-03-06T08:40:56.736Z,67.25
2023-03-06T08:45:58.053Z,67.58
2023-03-06T08:50:59.383Z,67.40
2023-03-06T08:56:00.722Z,66.00
2023-03-06T09:01:03.874Z,65.10
2023-03-06T09:06:05.515Z,62.95
2023-03-06T09:11:06.932Z,61.62
2023-03-06T09:16:09.184Z,61.79
2023-03-06T09:21:10.980Z,61.58
2023-03-06T09:26:12.564Z,60.80
2023-03-06T09:31:13.875Z,60.03
2023-03-06T09:36:15.588Z,59.32
2023-03-06T09:41:16.879Z,58.91
2023-03-06T09:46:18.215Z,56.85
2023-03-06T09:51:19.764Z,57.57
2023-03-06T09:56:21.118Z,58.17
2023-03-06T10:01:22.478Z,57.29
2023-03-06T10:06:23.843Z,55.07
2023-03-06T10:11:25.179Z,53.67
2023-03-06T10:16:26.489Z,51.44
2023-03-06T10:21:29.765Z,51.21
2023-03-06T10:26:34.713Z,49.94
2023-03-06T10:31:35.991Z,49.95
2023-03-06T10:36:37.353Z,50.44
2023-03-06T10:41:38.889Z,47.82
2023-03-06T10:46:41.781Z,50.87
2023-03-06T10:51:43.271Z,47.67
2023-03-06T10:56:44.649Z,48.19
2023-03-06T11:01:46.092Z,47.65
2023-03-06T11:06:47.449Z,50.19
2023-03-06T11:11:48.660Z,49.17
2023-03-06T11:16:53.183Z,48.08
2023-03-06T11:21:54.420Z,47.18
2023-03-06T11:26:55.696Z,46.24
2023-03-06T11:31:57.082Z,45.69
2023-03-06T11:36:58.327Z,45.61
2023-03-06T11:41:59.801Z,45.84
2023-03-06T11:47:01.619Z,47.35
2023-03-06T11:52:02.869Z,50.53
2023-03-06T11:57:04.164Z,50.83
2023-03-06T12:02:05.452Z,51.11
2023-03-06T12:07:07.820Z,50.53
2023-03-06T12:12:09.152Z,50.17
2023-03-06T12:17:10.396Z,49.21
2023-03-06T12:22:11.658Z,49.04
2023-03-06T12:27:13.079Z,46.59
2023-03-06T12:32:14.855Z,46.70
2023-03-06T12:37:16.330Z,48.06
2023-03-06T12:42:22.876Z,49.04
2023-03-06T12:47:25.030Z,51.08
2023-03-06T12:52:30.374Z,50.00
2023-03-06T12:57:33.910Z,52.79
2023-03-06T13:02:35.244Z,52.31
2023-03-06T13:07:36.715Z,51.43
2023-03-06T13:12:37.993Z,52.03
2023-03-06T13:57:28.115Z,70.04
2023-03-06T14:02:29.423Z,73.63
2023-03-06T14:07:30.841Z,75.68
2023-03-06T14:12:32.193Z,75.16
2023-03-06T14:17:33.567Z,73.79
2023-03-06T14:22:35.147Z,70.66
2023-03-06T14:27:36.535Z,70.09
2023-03-06T14:32:37.906Z,69.21
2023-03-06T14:37:39.356Z,68.65
2023-03-06T14:42:40.643Z,67.37
2023-03-06T14:47:41.877Z,67.43
2023-03-06T14:52:43.090Z,65.85
2023-03-06T14:57:44.556Z,65.43
2023-03-06T15:02:45.912Z,63.50
2023-03-06T15:07:47.270Z,63.88
2023-03-06T15:12:48.560Z,62.68
2023-03-06T15:17:49.825Z,61.73
2023-03-06T15:22:51.058Z,61.58
2023-03-06T15:27:52.298Z,62.35
2023-03-06T15:32:53.613Z,61.51
2023-03-06T15:37:54.942Z,61.32
2023-03-06T15:42:56.314Z,62.16
2023-03-06T15:47:58.411Z,62.41
2023-03-06T15:52:59.929Z,63.10
2023-03-06T15:58:02.146Z,64.42
2023-03-06T16:03:03.628Z,64.50
2023-03-06T16:08:05.244Z,64.84
2023-03-06T16:13:06.723Z,64.33
2023-03-06T16:18:08.097Z,64.30
2023-03-06T16:23:12.848Z,63.45
2023-03-06T16:28:17.158Z,63.64
2023-03-06T16:33:18.782Z,64.18
2023-03-06T16:38:20.138Z,64.07
2023-03-06T16:43:21.374Z,64.32
2023-03-06T16:48:22.693Z,64.53
2023-03-06T16:53:24.037Z,65.44
2023-03-06T16:58:31.257Z,65.05
2023-03-06T17:03:45.725Z,63.91
2023-03-06T17:08:47.009Z,63.40
2023-03-06T17:13:48.487Z,62.77
2023-03-06T17:18:56.804Z,61.39
2023-03-06T17:23:58.540Z,62.49
2023-03-06T17:29:00.187Z,62.39
2023-03-06T17:34:01.610Z,62.24
2023-03-06T17:39:03.216Z,62.27
2023-03-06T17:44:04.875Z,60.96
2023-03-06T17:49:07.005Z,63.79
2023-03-06T17:54:08.343Z,62.08
2023-03-06T17:59:09.865Z,62.73
2023-03-06T18:04:11.290Z,63.38
2023-03-06T18:09:12.626Z,64.87
2023-03-06T18:14:17.261Z,63.35
2023-03-06T18:19:18.968Z,61.84
2023-03-06T18:24:20.213Z,62.31
2023-03-06T18:29:21.466Z,62.62
2023-03-06T18:34:22.786Z,63.13
2023-03-06T18:39:24.038Z,62.37
2023-03-06T18:44:25.347Z,62.71
2023-03-06T18:49:26.686Z,62.55
2023-03-06T18:54:29.586Z,62.33
2023-03-06T18:59:32.745Z,62.41
2023-03-06T19:04:38.205Z,62.31
2023-03-06T19:09:40.706Z,62.07
2023-03-06T19:14:51.011Z,62.40
2023-03-06T19:19:52.369Z,62.54
2023-03-06T19:24:53.690Z,62.89
2023-03-06T19:29:55.109Z,62.30
2023-03-06T19:34:59.340Z,63.00
2023-03-06T19:40:04.848Z,64.29
2023-03-06T19:45:06.096Z,64.29
2023-03-06T19:50:07.364Z,63.91
2023-03-06T19:55:09.644Z,63.82
2023-03-06T20:00:10.888Z,63.45
2023-03-06T20:05:12.390Z,63.82
2023-03-06T20:10:13.781Z,64.04
2023-03-06T20:15:15.019Z,63.57
2023-03-06T20:20:16.275Z,61.89
2023-03-06T20:25:17.516Z,63.44
2023-03-06T20:30:20.993Z,65.55
2023-03-06T20:35:22.512Z,65.46
2023-03-06T20:40:23.908Z,66.21
2023-03-06T20:45:25.272Z,66.81
2023-03-06T20:50:26.778Z,65.76
2023-03-06T20:55:28.057Z,65.99
2023-03-06T21:00:34.221Z,65.34
2023-03-06T21:05:35.502Z,65.27
2023-03-06T21:10:36.805Z,65.45
2023-03-06T21:15:38.059Z,65.06
2023-03-06T21:20:39.412Z,64.73
2023-03-06T21:25:40.803Z,65.42
2023-03-06T21:30:42.046Z,65.47
2023-03-06T21:35:43.289Z,65.18
2023-03-06T21:40:45.383Z,64.68
2023-03-06T21:45:46.784Z,65.18
2023-03-06T21:50:48.435Z,64.66
2023-03-06T21:55:49.695Z,65.00
2023-03-06T22:00:51.004Z,64.79
2023-03-06T22:05:52.778Z,65.81
2023-03-06T22:10:53.991Z,66.51
2023-03-06T22:15:55.287Z,67.11
2023-03-06T22:20:56.497Z,66.46
2023-03-06T22:25:57.840Z,65.86
2023-03-06T22:30:59.058Z,65.79
2023-03-06T22:36:02.658Z,65.06
2023-03-06T22:41:04.045Z,64.92
2023-03-06T22:46:05.353Z,65.03
2023-03-06T22:51:06.663Z,64.60
2023-03-06T22:56:07.965Z,65.14
2023-03-06T23:01:09.800Z,65.85
2023-03-06T23:06:11.165Z,65.89
2023-03-06T23:11:12.438Z,65.65
2023-03-06T23:16:13.683Z,64.61
2023-03-06T23:21:14.988Z,64.70
2023-03-06T23:26:16.443Z,63.94
2023-03-06T23:31:17.735Z,63.73
2023-03-06T23:36:19.054Z,63.55
2023-03-06T23:41:20.346Z,63.02
2023-03-06T23:46:21.609Z,63.85
2023-03-06T23:51:22.985Z,63.64
2023-03-06T23:56:24.291Z,63.92
